Time;durP1;ratioP1;P1;durP2;ratioP2;P2;SDS_P1;SDS_P2;PMS_P1;PMS_P2;Temp;Humidity;BMP_temperature;BMP_pressure;BME280_temperature;BME280_humidity;BME280_pressure;Samples;Min_cycle;Max_cycle;Signal;HPM_P1;HPM_P2
2023/06/06 00:02:00;;;;;;;22.73;21.67;;;23.90;54.30;;;;;;5060731;28;20914;-58
2023/06/06 00:04:27;;;;;;;23.40;22.30;;;23.90;54.40;;;;;;5071181;28;20526;-60
2023/06/06 00:06:54;;;;;;;23.60;22.40;;;23.80;54.80;;;;;;5071247;28;20448;-62
2023/06/06 00:09:21;;;;;;;24.00;22.90;;;23.80;55.10;;;;;;5070715;28;20448;-61
2023/06/06 00:11:48;;;;;;;22.53;21.53;;;23.80;55.00;;;;;;5062445;28;20491;-61
2023/06/06 00:14:18;;;;;;;23.43;22.40;;;23.80;55.10;;;;;;5051082;28;20448;-62
2023/06/06 00:16:49;;;;;;;22.73;21.63;;;23.80;55.40;;;;;;5053681;28;20506;-62
2023/06/06 00:19:16;;;;;;;22.53;21.53;;;23.80;55.30;;;;;;5054634;28;20440;-61
2023/06/06 00:21:43;;;;;;;22.50;21.50;;;23.80;55.40;;;;;;5061948;28;20490;-62
2023/06/06 00:24:11;;;;;;;23.17;22.07;;;23.80;55.60;;;;;;5074710;28;20525;-62
2023/06/06 00:26:38;;;;;;;23.17;22.07;;;23.80;55.60;;;;;;5074849;28;20473;-61
2023/06/06 00:29:05;;;;;;;23.03;21.73;;;23.80;55.90;;;;;;5074884;28;20629;-60
2023/06/06 00:31:33;;;;;;;23.27;21.90;;;23.70;55.90;;;;;;5068689;28;20575;-61
2023/06/06 00:34:00;;;;;;;22.37;21.27;;;23.70;55.90;;;;;;5054798;28;20498;-61
2023/06/06 00:36:27;;;;;;;22.47;21.37;;;23.70;55.90;;;;;;5054715;28;20513;-62
2023/06/06 00:38:54;;;;;;;22.57;21.57;;;23.70;56.10;;;;;;5054547;28;20486;-61
2023/06/06 00:41:21;;;;;;;25.03;23.27;;;23.70;56.30;;;;;;5057842;28;20474;-60
2023/06/06 00:43:48;;;;;;;24.53;23.43;;;23.60;56.50;;;;;;5074349;28;20446;-62
2023/06/06 00:46:18;;;;;;;22.87;21.87;;;23.60;56.70;;;;;;5074231;28;20479;-61
2023/06/06 00:48:47;;;;;;;23.23;21.93;;;23.60;56.70;;;;;;5074048;28;20534;-60
2023/06/06 00:51:15;;;;;;;23.07;22.00;;;23.60;56.50;;;;;;5057294;28;20476;-62
2023/06/06 00:53:42;;;;;;;22.30;21.30;;;23.60;56.90;;;;;;5054188;28;20823;-60
2023/06/06 00:56:13;;;;;;;22.67;21.57;;;23.60;57.00;;;;;;5054326;28;20873;-62
2023/06/06 00:58:42;;;;;;;23.23;22.23;;;23.60;57.10;;;;;;5054013;28;20475;-60
2023/06/06 01:01:10;;;;;;;22.27;21.27;;;23.60;57.10;;;;;;5069128;28;20526;-62
2023/06/06 01:03:40;;;;;;;22.80;21.70;;;23.60;57.20;;;;;;5073815;28;20450;-61
2023/06/06 01:06:09;;;;;;;23.27;22.20;;;23.50;57.20;;;;;;5073802;28;20459;-58
2023/06/06 01:08:36;;;;;;;22.23;21.23;;;23.50;57.60;;;;;;5073585;28;21044;-60
2023/06/06 01:11:10;;;;;;;22.97;21.87;;;23.50;57.60;;;;;;5073064;28;20483;-60
2023/06/06 01:13:46;;;;;;;23.10;22.10;;;23.50;57.40;;;;;;5073587;28;20451;-61
2023/06/06 01:16:18;;;;;;;23.37;22.17;;;23.50;57.60;;;;;;5073743;28;20473;-58
2023/06/06 01:18:47;;;;;;;22.70;21.60;;;23.40;57.70;;;;;;5073386;28;20446;-59
2023/06/06 01:21:15;;;;;;;23.00;21.80;;;23.40;57.70;;;;;;5072291;28;20475;-57
2023/06/06 01:23:45;;;;;;;22.57;21.47;;;23.50;57.70;;;;;;5073511;28;20486;-61
2023/06/06 01:26:12;;;;;;;23.40;22.30;;;23.40;58.00;;;;;;5071096;28;20875;-60
2023/06/06 01:28:39;;;;;;;22.30;21.33;;;23.40;58.00;;;;;;5054420;28;20491;-62
2023/06/06 01:31:10;;;;;;;23.27;22.17;;;23.40;58.10;;;;;;5053219;28;20491;-59
2023/06/06 01:33:43;;;;;;;22.50;21.50;;;23.30;58.30;;;;;;5053130;28;20902;-60
2023/06/06 01:36:17;;;;;;;22.93;21.93;;;23.40;58.20;;;;;;5053201;28;20799;-60
2023/06/06 01:38:50;;;;;;;23.07;22.07;;;23.30;58.30;;;;;;5071590;28;20455;-60
2023/06/06 01:41:19;;;;;;;22.70;21.60;;;23.30;58.60;;;;;;5072904;28;20448;-59
2023/06/06 01:43:50;;;;;;;22.80;21.80;;;23.20;58.60;;;;;;5073144;28;20443;-59
2023/06/06 01:46:18;;;;;;;23.50;22.30;;;23.30;58.80;;;;;;5073110;28;20817;-62
2023/06/06 01:48:46;;;;;;;22.43;21.33;;;23.20;58.70;;;;;;5053707;28;20495;-60
2023/06/06 01:51:13;;;;;;;23.03;21.93;;;23.30;58.50;;;;;;5052824;28;20563;-61
2023/06/06 01:53:40;;;;;;;24.17;22.90;;;23.30;58.80;;;;;;5053066;28;20479;-61
2023/06/06 01:56:12;;;;;;;23.47;22.17;;;23.30;58.60;;;;;;5062892;28;20483;-60
2023/06/06 01:58:39;;;;;;;23.30;22.10;;;23.30;58.80;;;;;;5072650;28;20538;-63
2023/06/06 02:01:07;;;;;;;23.03;21.83;;;23.20;59.00;;;;;;5072691;28;20443;-62
2023/06/06 02:03:34;;;;;;;23.80;22.60;;;23.20;58.90;;;;;;5072617;28;20447;-61
2023/06/06 02:06:02;;;;;;;23.40;22.20;;;23.20;59.30;;;;;;5062767;28;20444;-60
2023/06/06 02:08:29;;;;;;;23.53;22.33;;;23.10;59.50;;;;;;5052437;28;20476;-61
2023/06/06 02:10:57;;;;;;;22.57;21.53;;;23.10;59.20;;;;;;5052428;28;21017;-59
2023/06/06 02:13:26;;;;;;;23.00;21.80;;;23.10;59.30;;;;;;5052594;28;20518;-62
2023/06/06 02:15:53;;;;;;;24.73;23.57;;;23.10;59.30;;;;;;5072234;28;20440;-62
2023/06/06 02:18:20;;;;;;;24.37;23.17;;;23.10;59.30;;;;;;5071839;28;20530;-62
2023/06/06 02:20:47;;;;;;;22.93;21.90;;;23.10;59.50;;;;;;5072235;28;20542;-60
2023/06/06 02:23:15;;;;;;;23.93;22.63;;;23.10;59.60;;;;;;5071942;28;20902;-61
2023/06/06 02:25:42;;;;;;;23.83;22.60;;;23.00;59.70;;;;;;5052240;28;20970;-61
2023/06/06 02:28:11;;;;;;;24.93;23.73;;;23.00;59.70;;;;;;5052113;28;20447;-59
2023/06/06 02:30:39;;;;;;;23.13;21.93;;;23.00;59.50;;;;;;5052140;28;20889;-61
2023/06/06 02:33:07;;;;;;;23.23;22.03;;;23.00;59.80;;;;;;5052009;28;20473;-61
2023/06/06 02:35:34;;;;;;;24.13;22.93;;;22.90;59.90;;;;;;5070606;28;20947;-62
2023/06/06 02:38:01;;;;;;;23.37;22.27;;;22.90;59.80;;;;;;5071268;28;20606;-59
2023/06/06 02:40:28;;;;;;;23.57;22.37;;;23.00;59.90;;;;;;5072243;28;20897;-61
2023/06/06 02:42:55;;;;;;;24.63;23.20;;;22.90;59.90;;;;;;5072616;28;20906;-61
2023/06/06 02:45:22;;;;;;;24.93;23.30;;;22.90;60.00;;;;;;5055405;28;20480;-61
2023/06/06 02:47:51;;;;;;;24.40;23.20;;;22.90;60.00;;;;;;5052084;28;20448;-61
2023/06/06 02:50:19;;;;;;;23.73;22.43;;;22.90;59.80;;;;;;5052221;28;20535;-60
2023/06/06 02:52:46;;;;;;;25.33;23.37;;;22.90;60.10;;;;;;5051970;28;20817;-59
2023/06/06 02:55:13;;;;;;;23.57;22.37;;;22.90;60.10;;;;;;5066768;28;20485;-61
2023/06/06 02:57:40;;;;;;;23.37;22.27;;;22.80;60.10;;;;;;5071530;28;20479;-61
2023/06/06 03:00:08;;;;;;;23.03;21.83;;;22.80;60.50;;;;;;5072073;28;20522;-60
2023/06/06 03:02:35;;;;;;;23.00;21.80;;;22.80;60.30;;;;;;5072066;28;20463;-61
2023/06/06 03:05:04;;;;;;;22.97;21.77;;;22.80;60.20;;;;;;5058189;28;20444;-61
2023/06/06 03:07:31;;;;;;;24.40;23.10;;;22.80;60.20;;;;;;5052260;28;20475;-60
2023/06/06 03:09:58;;;;;;;24.37;23.17;;;22.80;60.10;;;;;;5052045;28;20454;-60
2023/06/06 03:12:25;;;;;;;24.03;22.77;;;22.80;60.30;;;;;;5051960;28;20488;-62
2023/06/06 03:14:52;;;;;;;23.70;22.50;;;22.70;60.20;;;;;;5063651;28;20882;-61
2023/06/06 03:17:19;;;;;;;24.67;23.47;;;22.70;60.50;;;;;;5072100;28;20884;-59
2023/06/06 03:19:48;;;;;;;23.73;22.53;;;22.70;60.70;;;;;;5071819;28;20504;-59
2023/06/06 03:22:17;;;;;;;23.47;22.27;;;22.60;60.70;;;;;;5071550;28;20828;-59
2023/06/06 03:24:46;;;;;;;24.20;23.00;;;22.70;60.60;;;;;;5060672;28;20479;-60
2023/06/06 03:27:13;;;;;;;24.30;23.00;;;22.70;60.70;;;;;;5051381;28;20448;-61
2023/06/06 03:29:40;;;;;;;24.13;22.80;;;22.70;60.70;;;;;;5051123;28;20867;-62
2023/06/06 03:32:08;;;;;;;24.07;22.83;;;22.60;60.70;;;;;;5051226;28;20510;-63
2023/06/06 03:34:35;;;;;;;24.60;23.30;;;22.50;60.90;;;;;;5060044;28;20916;-60
2023/06/06 03:37:02;;;;;;;23.87;22.57;;;22.50;60.90;;;;;;5071434;28;20467;-60
2023/06/06 03:39:30;;;;;;;24.60;23.30;;;22.50;61.10;;;;;;5071571;28;20508;-62
2023/06/06 03:41:57;;;;;;;24.33;22.87;;;22.50;61.10;;;;;;5071215;28;20507;-61
2023/06/06 03:44:24;;;;;;;24.07;22.87;;;22.50;61.00;;;;;;5063829;28;20523;-59
2023/06/06 03:46:51;;;;;;;24.53;23.13;;;22.60;60.80;;;;;;5051384;28;20943;-59
2023/06/06 03:49:18;;;;;;;23.93;22.63;;;22.50;61.00;;;;;;5051442;28;20546;-61
2023/06/06 03:51:45;;;;;;;24.30;23.03;;;22.50;60.90;;;;;;5055464;28;20511;-62
2023/06/06 03:54:12;;;;;;;24.30;23.00;;;22.40;61.10;;;;;;5060279;28;20804;-58
2023/06/06 03:56:42;;;;;;;24.43;23.10;;;22.50;60.80;;;;;;5075120;28;20885;-62
2023/06/06 03:59:11;;;;;;;24.30;23.00;;;22.40;60.70;;;;;;5075026;28;20521;-62
2023/06/06 04:01:40;;;;;;;25.73;24.40;;;22.40;60.90;;;;;;5073744;28;20466;-64
2023/06/06 04:04:08;;;;;;;26.27;24.77;;;22.40;61.00;;;;;;5054955;28;20539;-62
2023/06/06 04:06:35;;;;;;;25.10;23.90;;;22.40;60.70;;;;;;5055082;28;20521;-57
2023/06/06 04:09:03;;;;;;;25.87;24.57;;;22.40;60.70;;;;;;5054812;28;20979;-61
2023/06/06 04:11:29;;;;;;;26.03;24.67;;;22.40;60.80;;;;;;5054722;28;21035;-64
2023/06/06 04:13:58;;;;;;;25.83;24.47;;;22.30;60.90;;;;;;5074512;28;20524;-64
2023/06/06 04:16:25;;;;;;;26.00;24.60;;;22.30;61.00;;;;;;5074733;28;20526;-60
2023/06/06 04:18:52;;;;;;;25.13;23.93;;;22.30;60.90;;;;;;5074469;28;20485;-61
2023/06/06 04:21:19;;;;;;;26.73;25.40;;;22.30;61.30;;;;;;5062572;28;20440;-63
2023/06/06 04:23:47;;;;;;;26.60;25.10;;;22.30;61.20;;;;;;5054581;28;20854;-60
2023/06/06 04:26:23;;;;;;;25.80;24.50;;;22.20;61.30;;;;;;5054513;28;20454;-64
2023/06/06 04:28:52;;;;;;;25.50;24.03;;;22.30;61.60;;;;;;5059284;28;20995;-62
2023/06/06 04:31:21;;;;;;;25.10;23.60;;;22.30;63.30;;;;;;5074265;28;20479;-65
2023/06/06 04:33:53;;;;;;;25.53;24.23;;;22.40;65.40;;;;;;5074328;28;20450;-67
2023/06/06 04:36:21;;;;;;;35.87;28.50;;;22.50;66.30;;;;;;5074375;28;20486;-66
2023/06/06 04:38:49;;;;;;;26.33;24.37;;;22.50;66.90;;;;;;5069862;28;20455;-67
2023/06/06 04:41:16;;;;;;;25.93;24.43;;;22.60;67.70;;;;;;5054652;28;20852;-67
2023/06/06 04:43:44;;;;;;;25.10;23.73;;;22.60;67.10;;;;;;5054535;28;20938;-65
2023/06/06 04:46:11;;;;;;;25.67;24.37;;;22.60;66.40;;;;;;5054072;28;20459;-66
2023/06/06 04:48:39;;;;;;;25.20;23.73;;;22.60;65.20;;;;;;5053993;28;20459;-66
2023/06/06 04:51:08;;;;;;;25.73;24.43;;;22.60;64.50;;;;;;5053922;28;20609;-65
2023/06/06 04:53:42;;;;;;;25.20;24.00;;;22.60;64.00;;;;;;5054094;28;20459;-67
2023/06/06 04:56:10;;;;;;;25.20;23.80;;;22.60;63.90;;;;;;5054224;28;20791;-67
2023/06/06 04:58:37;;;;;;;25.17;23.97;;;22.60;63.30;;;;;;5053773;28;20462;-67
2023/06/06 05:01:04;;;;;;;26.30;24.70;;;22.70;63.10;;;;;;5053046;28;20506;-66
2023/06/06 05:03:31;;;;;;;25.90;24.70;;;22.70;63.80;;;;;;5053819;28;20476;-67
2023/06/06 05:06:00;;;;;;;25.13;23.83;;;22.70;62.40;;;;;;5053863;28;20444;-67
2023/06/06 05:08:31;;;;;;;25.30;23.90;;;22.70;62.60;;;;;;5055269;28;20454;-67
2023/06/06 05:10:58;;;;;;;24.40;23.10;;;22.70;62.50;;;;;;5054276;28;20448;-67
2023/06/06 05:13:25;;;;;;;26.00;24.60;;;22.70;62.20;;;;;;5053598;28;20468;-66
2023/06/06 05:15:52;;;;;;;24.53;23.30;;;22.70;61.90;;;;;;5053589;28;20577;-66
2023/06/06 05:18:20;;;;;;;25.13;23.93;;;22.80;61.60;;;;;;5053436;28;20487;-67
2023/06/06 05:20:47;;;;;;;25.73;24.00;;;22.80;61.70;;;;;;5053452;28;20454;-68
2023/06/06 05:23:15;;;;;;;24.60;23.40;;;22.80;61.30;;;;;;5053372;28;21048;-64
2023/06/06 05:25:42;;;;;;;24.63;23.33;;;22.80;61.10;;;;;;5053475;28;21001;-67
2023/06/06 05:28:11;;;;;;;24.37;23.27;;;22.70;61.00;;;;;;5053228;28;20476;-66
2023/06/06 05:30:38;;;;;;;24.50;23.30;;;22.70;60.70;;;;;;5053294;28;20452;-66
2023/06/06 05:33:05;;;;;;;24.53;23.27;;;22.80;60.80;;;;;;5053207;28;20571;-66
2023/06/06 05:35:31;;;;;;;23.90;22.80;;;22.80;60.60;;;;;;5053182;28;20476;-67
2023/06/06 05:37:58;;;;;;;23.97;22.87;;;22.80;60.50;;;;;;5053056;28;20483;-65
2023/06/06 05:40:26;;;;;;;24.73;23.43;;;22.80;60.60;;;;;;5053171;28;20480;-65
2023/06/06 05:42:53;;;;;;;25.03;23.67;;;22.80;60.80;;;;;;5052844;28;20499;-67
2023/06/06 05:45:20;;;;;;;24.80;23.50;;;22.80;60.30;;;;;;5053014;28;20488;-64
2023/06/06 05:47:47;;;;;;;24.03;22.93;;;22.80;60.00;;;;;;5052990;28;20486;-67
2023/06/06 05:50:14;;;;;;;24.40;23.20;;;22.80;60.20;;;;;;5052890;28;20479;-65
2023/06/06 05:52:41;;;;;;;24.60;23.13;;;22.80;60.20;;;;;;5052906;28;20512;-68
2023/06/06 05:55:10;;;;;;;23.70;22.60;;;22.80;60.20;;;;;;5052863;28;20479;-66
2023/06/06 05:57:38;;;;;;;24.70;23.50;;;22.80;60.30;;;;;;5052929;28;20944;-66
2023/06/06 06:00:08;;;;;;;24.37;23.17;;;22.80;60.10;;;;;;5052587;28;20480;-68
2023/06/06 06:02:36;;;;;;;25.10;23.80;;;22.80;59.90;;;;;;5052671;28;20590;-66
2023/06/06 06:05:04;;;;;;;25.70;24.40;;;22.80;59.80;;;;;;5052680;28;20471;-67
2023/06/06 06:07:30;;;;;;;24.30;23.10;;;22.80;59.90;;;;;;5053184;28;20517;-66
2023/06/06 06:09:57;;;;;;;25.27;24.00;;;22.80;60.10;;;;;;5052395;28;20476;-68
2023/06/06 06:12:24;;;;;;;25.53;24.07;;;22.80;60.00;;;;;;5052174;28;20563;-66
2023/06/06 06:14:52;;;;;;;25.20;24.00;;;22.80;60.00;;;;;;5051959;28;20475;-65
2023/06/06 06:17:20;;;;;;;25.07;23.87;;;22.90;59.80;;;;;;5052698;28;20491;-68
2023/06/06 06:19:47;;;;;;;25.87;24.63;;;22.90;59.80;;;;;;5052328;28;20455;-67
2023/06/06 06:22:14;;;;;;;25.00;23.80;;;22.90;59.60;;;;;;5052503;28;20565;-67
2023/06/06 06:24:41;;;;;;;26.10;24.77;;;22.90;59.60;;;;;;5052371;28;20888;-67
2023/06/06 06:27:08;;;;;;;25.40;23.80;;;22.90;59.80;;;;;;5052383;28;20882;-65
2023/06/06 06:29:35;;;;;;;25.03;23.83;;;22.90;59.70;;;;;;5052076;28;20793;-67
2023/06/06 06:32:03;;;;;;;25.67;24.37;;;22.90;59.70;;;;;;5051984;28;20488;-67
2023/06/06 06:34:30;;;;;;;24.90;23.70;;;22.90;59.80;;;;;;5052125;28;20471;-68
2023/06/06 06:36:57;;;;;;;25.20;24.00;;;22.90;59.80;;;;;;5052159;28;20535;-64
2023/06/06 06:39:24;;;;;;;26.07;24.57;;;22.90;59.50;;;;;;5051892;28;20532;-67
2023/06/06 06:41:52;;;;;;;25.27;23.97;;;22.90;59.50;;;;;;5051787;28;20563;-68
2023/06/06 06:44:19;;;;;;;24.90;23.60;;;22.90;59.60;;;;;;5051929;28;20452;-66
2023/06/06 06:46:46;;;;;;;24.57;23.47;;;22.90;59.50;;;;;;5051857;28;20982;-68
2023/06/06 06:49:16;;;;;;;25.47;24.27;;;22.90;59.70;;;;;;5051787;28;20476;-64
2023/06/06 06:51:43;;;;;;;25.80;24.57;;;22.90;59.50;;;;;;5051787;28;20487;-68
2023/06/06 06:54:12;;;;;;;25.33;24.13;;;23.00;59.70;;;;;;5051761;28;20448;-65
2023/06/06 06:56:41;;;;;;;24.90;23.70;;;23.00;59.70;;;;;;5051831;28;20462;-66
2023/06/06 06:59:08;;;;;;;25.63;24.23;;;23.00;59.50;;;;;;5051563;28;21014;-65
2023/06/06 07:01:37;;;;;;;26.20;24.90;;;23.00;59.70;;;;;;5051638;28;20474;-66
2023/06/06 07:04:05;;;;;;;24.67;23.50;;;23.00;59.70;;;;;;5051596;28;20943;-67
2023/06/06 07:06:33;;;;;;;25.30;24.10;;;23.00;59.80;;;;;;5051677;28;20455;-67
2023/06/06 07:09:04;;;;;;;25.37;24.07;;;23.00;59.80;;;;;;5051336;28;20480;-65
2023/06/06 07:11:31;;;;;;;25.20;23.63;;;23.00;59.80;;;;;;5051370;28;20503;-66
2023/06/06 07:13:57;;;;;;;24.10;23.00;;;23.00;59.60;;;;;;5051392;28;20451;-64
2023/06/06 07:16:25;;;;;;;24.83;23.63;;;23.00;59.50;;;;;;5051440;28;20479;-67
2023/06/06 07:18:53;;;;;;;24.70;23.60;;;23.00;59.80;;;;;;5051341;28;20530;-64
2023/06/06 07:21:21;;;;;;;24.10;23.00;;;23.00;59.60;;;;;;5051425;28;20475;-68
2023/06/06 07:23:50;;;;;;;25.57;24.17;;;23.00;59.60;;;;;;5051260;28;20448;-66
2023/06/06 07:26:17;;;;;;;26.10;24.60;;;23.00;59.60;;;;;;5051153;28;20448;-67
2023/06/06 07:28:45;;;;;;;25.10;23.87;;;23.00;59.70;;;;;;5051128;28;20444;-67
2023/06/06 07:31:12;;;;;;;26.00;24.70;;;23.00;59.70;;;;;;5051498;28;20998;-67
2023/06/06 07:33:39;;;;;;;26.27;24.83;;;23.00;59.50;;;;;;5051167;28;20609;-65
2023/06/06 07:36:07;;;;;;;26.87;25.37;;;23.00;59.40;;;;;;5051253;28;20476;-64
2023/06/06 07:38:34;;;;;;;27.20;25.70;;;23.10;59.30;;;;;;5051272;28;20540;-68
2023/06/06 07:41:02;;;;;;;25.90;24.33;;;23.00;59.30;;;;;;5051341;28;20507;-66
2023/06/06 07:43:29;;;;;;;25.90;24.70;;;23.10;59.40;;;;;;5051240;28;20450;-65
2023/06/06 07:45:56;;;;;;;25.73;24.43;;;23.10;59.40;;;;;;5051394;28;20479;-67
2023/06/06 07:48:23;;;;;;;24.23;23.13;;;23.10;59.60;;;;;;5051045;28;20523;-67
2023/06/06 07:50:50;;;;;;;25.10;23.90;;;23.10;59.60;;;;;;5051168;28;20483;-65
2023/06/06 07:53:17;;;;;;;25.60;24.10;;;23.10;59.50;;;;;;5051049;28;20615;-66
2023/06/06 07:55:44;;;;;;;26.30;25.00;;;23.10;59.50;;;;;;5051162;28;20448;-66
2023/06/06 07:58:12;;;;;;;25.20;23.90;;;23.10;59.20;;;;;;5050922;28;20451;-66
2023/06/06 08:00:40;;;;;;;25.60;24.30;;;23.10;59.20;;;;;;5051214;28;20480;-67
2023/06/06 08:03:09;;;;;;;26.00;24.70;;;23.10;59.20;;;;;;5050769;28;20464;-67
2023/06/06 08:05:36;;;;;;;25.83;24.50;;;23.10;59.30;;;;;;5051085;28;20444;-66
2023/06/06 08:08:05;;;;;;;25.63;24.27;;;23.10;59.30;;;;;;5051012;28;20462;-66
2023/06/06 08:10:32;;;;;;;25.50;24.30;;;23.10;59.30;;;;;;5050933;28;20455;-67
2023/06/06 08:13:00;;;;;;;25.57;24.13;;;23.10;59.50;;;;;;5050747;28;20587;-67
2023/06/06 08:15:29;;;;;;;25.50;24.10;;;23.10;59.60;;;;;;5051006;28;20530;-66
2023/06/06 08:17:56;;;;;;;25.03;23.73;;;23.10;59.40;;;;;;5050968;28;20452;-65
2023/06/06 08:20:23;;;;;;;26.47;24.77;;;23.10;59.30;;;;;;5050854;28;20505;-67
2023/06/06 08:22:50;;;;;;;24.93;23.63;;;23.10;59.10;;;;;;5050890;28;20548;-67
2023/06/06 08:25:17;;;;;;;26.33;24.50;;;23.10;59.20;;;;;;5050873;28;20487;-66
2023/06/06 08:27:45;;;;;;;25.57;24.27;;;23.10;59.10;;;;;;5050849;28;20479;-66
2023/06/06 08:30:12;;;;;;;25.87;24.47;;;23.10;59.00;;;;;;5050918;28;20444;-66
2023/06/06 08:32:40;;;;;;;25.63;24.33;;;23.10;59.20;;;;;;5050783;28;20567;-66
2023/06/06 08:35:08;;;;;;;26.37;25.07;;;23.20;59.20;;;;;;5050791;28;20476;-67
2023/06/06 08:37:35;;;;;;;26.37;24.77;;;23.20;59.50;;;;;;5052997;28;20483;-67
2023/06/06 08:40:02;;;;;;;24.80;23.60;;;23.20;59.50;;;;;;5054273;28;20490;-66
2023/06/06 08:42:32;;;;;;;26.83;24.80;;;23.20;59.40;;;;;;5054757;28;20472;-67
2023/06/06 08:45:01;;;;;;;25.37;24.17;;;23.20;59.30;;;;;;5054283;28;20541;-67
2023/06/06 08:47:30;;;;;;;25.73;24.53;;;23.20;59.40;;;;;;5054320;28;20482;-67
2023/06/06 08:50:00;;;;;;;25.77;24.30;;;23.20;59.30;;;;;;5054040;28;20514;-66
2023/06/06 08:52:29;;;;;;;25.27;23.70;;;23.20;59.30;;;;;;5054008;28;20516;-67
2023/06/06 08:54:56;;;;;;;25.17;23.90;;;23.20;59.40;;;;;;5054016;28;20444;-66
2023/06/06 08:57:24;;;;;;;25.57;24.27;;;23.20;59.50;;;;;;5054032;28;20537;-67
2023/06/06 08:59:51;;;;;;;26.50;25.20;;;23.20;59.40;;;;;;5053724;28;20877;-66
2023/06/06 09:02:18;;;;;;;25.47;24.27;;;23.20;59.40;;;;;;5053837;28;20468;-67
2023/06/06 09:04:45;;;;;;;24.77;23.53;;;23.20;59.60;;;;;;5053710;28;20451;-67
2023/06/06 09:07:15;;;;;;;26.17;24.87;;;23.20;59.60;;;;;;5053782;28;20458;-66
2023/06/06 09:09:45;;;;;;;25.97;24.57;;;23.20;59.50;;;;;;5053646;28;20532;-66
2023/06/06 09:12:12;;;;;;;26.23;24.83;;;23.20;59.50;;;;;;5053692;28;20557;-67
2023/06/06 09:14:39;;;;;;;26.53;25.10;;;23.20;59.80;;;;;;5053705;28;20536;-67
2023/06/06 09:17:06;;;;;;;25.57;24.33;;;23.20;60.00;;;;;;5053834;28;20865;-66
2023/06/06 09:19:33;;;;;;;25.90;24.50;;;23.20;59.90;;;;;;5053487;28;20479;-67
2023/06/06 09:22:07;;;;;;;26.17;24.70;;;23.20;59.90;;;;;;5053592;28;20464;-67
2023/06/06 09:24:43;;;;;;;25.67;24.37;;;23.20;60.00;;;;;;5053571;28;20451;-66
2023/06/06 09:27:28;;;;;;;26.13;24.83;;;23.20;60.10;;;;;;5053543;28;20950;-66
2023/06/06 09:29:55;;;;;;;26.60;25.10;;;23.30;60.10;;;;;;5053370;28;20467;-68
2023/06/06 09:32:28;;;;;;;27.50;26.10;;;23.30;60.20;;;;;;5053409;28;20912;-66
2023/06/06 09:34:55;;;;;;;26.23;24.93;;;23.20;60.40;;;;;;5053584;28;20455;-67
2023/06/06 09:37:23;;;;;;;26.50;25.17;;;23.30;60.20;;;;;;5053426;28;20475;-68
2023/06/06 09:40:11;;;;;;;27.30;25.80;;;23.30;60.10;;;;;;5053012;28;20476;-67
2023/06/06 09:42:40;;;;;;;27.53;26.13;;;23.30;60.60;;;;;;5053017;28;20582;-67
2023/06/06 09:45:13;;;;;;;27.77;26.13;;;23.30;61.10;;;;;;5053036;28;20542;-66
2023/06/06 09:47:41;;;;;;;27.10;25.60;;;23.30;61.10;;;;;;5052933;28;20974;-66
2023/06/06 09:50:09;;;;;;;27.43;25.83;;;23.30;61.10;;;;;;5052807;28;20447;-67
2023/06/06 09:52:35;;;;;;;27.20;25.40;;;23.30;61.00;;;;;;5052794;28;20570;-66
2023/06/06 09:55:07;;;;;;;28.30;26.53;;;23.30;61.30;;;;;;5052804;28;20497;-66
2023/06/06 09:57:36;;;;;;;27.90;26.37;;;23.30;61.40;;;;;;5052792;28;20453;-66
2023/06/06 10:00:07;;;;;;;26.70;25.40;;;23.30;61.50;;;;;;5052658;28;20521;-65
2023/06/06 10:02:36;;;;;;;26.73;25.40;;;23.30;61.20;;;;;;5052695;28;20471;-65
2023/06/06 10:05:04;;;;;;;28.13;26.50;;;23.30;61.50;;;;;;5052623;28;20954;-66
2023/06/06 10:07:32;;;;;;;28.47;26.67;;;23.30;61.30;;;;;;5052876;28;20817;-67
2023/06/06 10:09:59;;;;;;;26.93;25.43;;;23.30;61.70;;;;;;5052440;28;20954;-65
2023/06/06 10:12:30;;;;;;;27.20;25.60;;;23.30;61.70;;;;;;5052355;28;20456;-67
2023/06/06 10:14:57;;;;;;;26.73;25.33;;;23.40;61.50;;;;;;5052584;28;20448;-67
2023/06/06 10:17:25;;;;;;;26.70;25.20;;;23.40;61.50;;;;;;5052435;28;20475;-67
2023/06/06 10:19:56;;;;;;;26.83;25.37;;;23.40;61.50;;;;;;5052329;28;20854;-67
2023/06/06 10:22:23;;;;;;;26.83;25.13;;;23.40;61.10;;;;;;5052306;28;20500;-67
2023/06/06 10:24:50;;;;;;;26.73;25.10;;;23.40;61.20;;;;;;5052246;28;20553;-66
2023/06/06 10:27:24;;;;;;;25.73;24.43;;;23.40;61.20;;;;;;5052343;28;20480;-66
2023/06/06 10:30:01;;;;;;;26.00;24.70;;;23.40;62.00;;;;;;5052035;28;20817;-66
2023/06/06 10:32:42;;;;;;;28.10;26.60;;;23.40;61.00;;;;;;5052086;28;21006;-66
2023/06/06 10:35:12;;;;;;;26.73;25.20;;;23.50;60.90;;;;;;5052205;28;20881;-67
2023/06/06 10:37:39;;;;;;;27.37;25.87;;;23.50;60.90;;;;;;5052089;28;20635;-68
2023/06/06 10:40:09;;;;;;;26.17;24.50;;;23.50;60.70;;;;;;5051794;28;20535;-67
2023/06/06 10:42:37;;;;;;;26.80;25.20;;;23.50;60.80;;;;;;5051890;28;20483;-67
2023/06/06 10:45:07;;;;;;;26.37;25.07;;;23.50;60.90;;;;;;5052219;28;20593;-67
2023/06/06 10:47:35;;;;;;;26.77;25.37;;;23.50;60.70;;;;;;5052516;28;20538;-67
2023/06/06 10:50:24;;;;;;;26.07;24.77;;;23.50;60.50;;;;;;5051848;28;20440;-67
2023/06/06 10:52:53;;;;;;;27.17;25.77;;;23.60;60.70;;;;;;5051670;28;20618;-65
2023/06/06 10:55:39;;;;;;;27.00;25.57;;;23.60;60.50;;;;;;5051849;28;20483;-65
2023/06/06 10:58:09;;;;;;;27.33;25.50;;;23.60;60.50;;;;;;5052155;28;20482;-67
2023/06/06 11:00:41;;;;;;;26.97;25.43;;;23.60;60.70;;;;;;5051077;28;20451;-66
2023/06/06 11:03:09;;;;;;;25.70;24.40;;;23.60;60.50;;;;;;5051739;28;20495;-66
2023/06/06 11:06:05;;;;;;;25.60;24.30;;;23.60;60.30;;;;;;5051586;28;20506;-67
2023/06/06 11:08:33;;;;;;;26.37;24.80;;;23.60;60.50;;;;;;5051313;28;20519;-67
2023/06/06 11:11:21;;;;;;;26.80;25.60;;;23.60;60.30;;;;;;5052858;28;20804;-66
2023/06/06 11:13:53;;;;;;;26.60;25.40;;;23.70;60.10;;;;;;5052209;28;20480;-67
2023/06/06 11:16:30;;;;;;;26.87;25.50;;;23.70;60.00;;;;;;5051470;28;20894;-67
2023/06/06 11:19:04;;;;;;;26.07;24.67;;;23.70;59.90;;;;;;5051220;28;20448;-64
2023/06/06 11:21:32;;;;;;;26.47;25.07;;;23.70;59.90;;;;;;5051386;28;20491;-65
2023/06/06 11:23:59;;;;;;;26.10;24.80;;;23.70;59.90;;;;;;5051434;28;20526;-66
2023/06/06 11:26:27;;;;;;;26.57;24.83;;;23.70;59.60;;;;;;5051291;28;20448;-67
2023/06/06 11:28:55;;;;;;;26.70;25.37;;;23.70;59.70;;;;;;5051177;28;20447;-66
2023/06/06 11:31:24;;;;;;;27.20;25.63;;;23.70;59.70;;;;;;5051229;28;20959;-66
2023/06/06 11:33:52;;;;;;;26.20;24.90;;;23.70;59.70;;;;;;5051207;28;20542;-66
2023/06/06 11:36:20;;;;;;;25.97;24.47;;;23.70;59.70;;;;;;5051333;28;20479;-66
2023/06/06 11:38:47;;;;;;;26.57;24.97;;;23.70;59.60;;;;;;5050970;28;20472;-66
2023/06/06 11:41:15;;;;;;;26.10;24.90;;;23.70;59.40;;;;;;5051069;28;20535;-67
2023/06/06 11:43:50;;;;;;;26.27;24.97;;;23.80;59.00;;;;;;5051258;28;20448;-66
2023/06/06 11:46:18;;;;;;;26.33;24.83;;;23.80;58.90;;;;;;5051313;28;20444;-67
2023/06/06 11:48:45;;;;;;;25.70;24.50;;;23.80;58.90;;;;;;5051292;28;21141;-67
2023/06/06 11:51:14;;;;;;;26.57;25.30;;;23.80;58.80;;;;;;5051203;28;20475;-67
2023/06/06 11:53:41;;;;;;;26.37;25.17;;;23.80;58.60;;;;;;5051254;28;20518;-67
2023/06/06 11:56:15;;;;;;;26.87;25.53;;;23.90;58.60;;;;;;5051382;28;20444;-67
2023/06/06 11:58:42;;;;;;;25.60;24.40;;;23.90;58.90;;;;;;5051057;28;20455;-67
2023/06/06 12:01:10;;;;;;;25.73;24.43;;;23.80;58.20;;;;;;5050950;28;20530;-66
2023/06/06 12:03:39;;;;;;;26.83;25.27;;;23.90;58.30;;;;;;5051012;28;20448;-66
2023/06/06 12:06:08;;;;;;;25.60;24.30;;;23.90;58.40;;;;;;5051246;28;20498;-67
2023/06/06 12:08:37;;;;;;;25.70;24.30;;;23.80;58.30;;;;;;5051420;28;20455;-66
2023/06/06 12:11:24;;;;;;;25.40;24.10;;;23.80;58.30;;;;;;5051517;28;20860;-68
2023/06/06 12:13:51;;;;;;;25.47;24.27;;;23.90;58.30;;;;;;5055060;28;20885;-65
2023/06/06 12:16:22;;;;;;;26.30;25.00;;;23.90;58.10;;;;;;5055305;28;20875;-64
2023/06/06 12:18:50;;;;;;;25.60;24.40;;;23.90;57.90;;;;;;5054821;28;20936;-65
2023/06/06 12:21:17;;;;;;;26.20;24.80;;;23.90;57.70;;;;;;5054736;28;20448;-65
2023/06/06 12:23:46;;;;;;;25.00;23.70;;;24.00;57.70;;;;;;5054631;28;20490;-68
2023/06/06 12:26:16;;;;;;;25.40;24.10;;;24.00;57.60;;;;;;5054568;28;20479;-66
2023/06/06 12:28:59;;;;;;;26.27;24.80;;;24.00;57.50;;;;;;5054788;28;20440;-67
2023/06/06 12:31:27;;;;;;;26.10;24.80;;;24.00;57.50;;;;;;5055109;28;20491;-67
2023/06/06 12:33:54;;;;;;;26.03;24.73;;;24.00;57.40;;;;;;5054710;28;21000;-66
2023/06/06 12:36:25;;;;;;;25.43;24.33;;;24.00;57.30;;;;;;5054736;28;20452;-66